createdAt,value
2017-10-03T00:02:05.617Z,3.10
2017-10-03T00:04:32.764Z,2.57
2017-10-03T00:06:59.811Z,2.70
2017-10-03T00:09:26.140Z,3.13
2017-10-03T00:11:53.240Z,2.90
2017-10-03T00:14:19.516Z,2.80
2017-10-03T00:16:46.708Z,3.07
2017-10-03T00:19:13.013Z,3.20
2017-10-03T00:21:40.020Z,3.20
2017-10-03T00:24:06.349Z,3.87
2017-10-03T00:26:32.625Z,3.13
2017-10-03T00:28:58.979Z,3.10
2017-10-03T00:31:25.313Z,3.07
2017-10-03T00:33:51.668Z,3.00
2017-10-03T00:36:17.996Z,2.80
2017-10-03T00:38:44.331Z,3.73
2017-10-03T00:41:10.655Z,3.73
2017-10-03T00:43:36.937Z,3.03
2017-10-03T00:46:03.240Z,2.87
2017-10-03T00:48:30.280Z,2.67
2017-10-03T00:50:56.645Z,2.13
2017-10-03T00:53:23.193Z,2.67
2017-10-03T00:55:49.484Z,2.20
2017-10-03T00:58:16.680Z,2.63
2017-10-03T01:00:43.072Z,2.67
2017-10-03T01:03:10.128Z,2.70
2017-10-03T01:05:37.160Z,2.20
2017-10-03T01:08:04.279Z,2.27
2017-10-03T01:10:30.627Z,2.43
2017-10-03T01:12:56.935Z,2.50
2017-10-03T01:15:23.236Z,2.77
2017-10-03T01:17:49.516Z,2.13
2017-10-03T01:20:15.823Z,2.57
2017-10-03T01:22:42.196Z,3.50
2017-10-03T01:25:09.424Z,2.63
2017-10-03T01:27:35.699Z,2.37
2017-10-03T01:30:02.116Z,2.60
2017-10-03T01:32:29.171Z,3.23
2017-10-03T01:34:56.207Z,4.03
2017-10-03T01:37:23.280Z,2.67
2017-10-03T01:39:49.584Z,2.80
2017-10-03T01:42:16.657Z,2.43
2017-10-03T01:44:43.080Z,2.60
2017-10-03T01:47:09.377Z,3.07
2017-10-03T01:49:35.731Z,2.40
2017-10-03T01:52:02.797Z,3.50
2017-10-03T01:54:29.090Z,2.40
2017-10-03T01:56:56.111Z,2.23
2017-10-03T01:59:22.414Z,2.07
2017-10-03T02:01:48.779Z,2.70
2017-10-03T02:04:15.088Z,2.13
2017-10-03T02:06:41.403Z,2.47
2017-10-03T02:09:07.707Z,2.20
2017-10-03T02:11:34.804Z,2.07
2017-10-03T02:14:01.080Z,3.17
2017-10-03T02:16:28.121Z,2.23
2017-10-03T02:18:54.412Z,2.40
2017-10-03T02:21:20.780Z,2.70
2017-10-03T02:23:47.811Z,3.13
2017-10-03T02:26:14.300Z,2.50
2017-10-03T02:28:40.590Z,2.57
2017-10-03T02:31:07.603Z,2.00
2017-10-03T02:33:33.896Z,2.60
2017-10-03T02:36:00.189Z,2.97
2017-10-03T02:38:27.258Z,2.20
2017-10-03T02:40:54.340Z,2.50
2017-10-03T02:43:20.653Z,2.87
2017-10-03T02:45:46.935Z,3.17
2017-10-03T02:48:13.248Z,2.47
2017-10-03T02:50:39.545Z,2.57
2017-10-03T02:53:05.845Z,3.00
2017-10-03T02:55:32.900Z,2.73
2017-10-03T02:57:59.963Z,2.43
2017-10-03T03:00:26.263Z,3.80
2017-10-03T03:02:53.303Z,2.60
2017-10-03T03:05:19.639Z,3.13
2017-10-03T03:07:45.984Z,2.90
2017-10-03T03:10:13.008Z,2.90
2017-10-03T03:12:39.364Z,2.40
2017-10-03T03:15:06.428Z,3.03
2017-10-03T03:17:32.941Z,2.40
2017-10-03T03:19:59.977Z,2.60
2017-10-03T03:22:26.287Z,2.70
2017-10-03T03:24:52.571Z,5.03
2017-10-03T03:27:18.877Z,3.00
2017-10-03T03:29:45.913Z,3.17
2017-10-03T03:32:13.005Z,3.10
2017-10-03T03:34:39.307Z,3.90
2017-10-03T03:37:06.355Z,3.13
2017-10-03T03:39:33.374Z,2.60
2017-10-03T03:41:59.680Z,3.07
2017-10-03T03:44:25.984Z,3.40
2017-10-03T03:46:52.332Z,3.07
2017-10-03T03:49:18.852Z,2.50
2017-10-03T03:51:45.150Z,3.80
2017-10-03T03:54:12.211Z,3.13
2017-10-03T03:56:38.660Z,3.10
2017-10-03T03:59:05.135Z,3.20
2017-10-03T04:01:31.460Z,2.70
2017-10-03T04:03:57.764Z,2.90
2017-10-03T04:06:24.061Z,2.67
2017-10-03T04:08:51.240Z,2.63
2017-10-03T04:11:17.594Z,3.50
2017-10-03T04:13:43.908Z,3.43
2017-10-03T04:16:10.229Z,3.20
2017-10-03T04:18:36.517Z,2.63
2017-10-03T04:21:03.551Z,3.07
2017-10-03T04:23:29.867Z,4.37
2017-10-03T04:25:56.192Z,3.13
2017-10-03T04:28:22.512Z,2.83
2017-10-03T04:30:48.899Z,2.87
2017-10-03T04:33:15.925Z,3.03
2017-10-03T04:35:42.397Z,3.43
2017-10-03T04:38:08.724Z,3.37
2017-10-03T04:40:35.046Z,3.00
2017-10-03T04:43:01.516Z,4.17
2017-10-03T04:45:27.823Z,4.03
2017-10-03T04:47:54.380Z,3.13
2017-10-03T04:50:20.797Z,3.40
2017-10-03T04:52:47.080Z,4.50
2017-10-03T04:55:13.384Z,4.07
2017-10-03T04:57:39.666Z,3.60
2017-10-03T05:00:06.253Z,3.60
2017-10-03T05:02:32.556Z,3.57
2017-10-03T05:04:58.956Z,3.60
2017-10-03T05:07:26.031Z,3.73
2017-10-03T05:09:52.392Z,4.60
2017-10-03T05:12:18.829Z,3.23
2017-10-03T05:14:45.132Z,3.43
2017-10-03T05:17:11.421Z,3.27
2017-10-03T05:19:38.542Z,3.33
2017-10-03T05:22:04.835Z,3.23
2017-10-03T05:24:31.327Z,3.50
2017-10-03T05:26:58.525Z,3.30
2017-10-03T05:29:24.825Z,3.40
2017-10-03T05:31:51.887Z,3.47
2017-10-03T05:34:18.197Z,3.07
2017-10-03T05:36:45.241Z,3.87
2017-10-03T05:39:12.299Z,2.87
2017-10-03T05:41:39.347Z,2.97
2017-10-03T05:44:05.671Z,3.27
2017-10-03T05:46:32.704Z,2.93
2017-10-03T05:48:59.756Z,3.03
2017-10-03T05:51:26.824Z,3.17
2017-10-03T05:53:53.133Z,2.40
2017-10-03T05:56:20.192Z,2.50
2017-10-03T05:58:47.210Z,2.37
2017-10-03T06:01:13.495Z,2.70
2017-10-03T06:03:39.804Z,2.40
2017-10-03T06:06:06.108Z,3.20
2017-10-03T06:08:33.164Z,2.90
2017-10-03T06:11:00.199Z,3.10
2017-10-03T06:13:26.487Z,2.50
2017-10-03T06:15:52.771Z,3.23
2017-10-03T06:18:19.820Z,2.03
2017-10-03T06:20:46.860Z,2.67
2017-10-03T06:23:13.960Z,3.17
2017-10-03T06:25:40.280Z,2.33
2017-10-03T06:28:06.558Z,3.00
2017-10-03T06:30:32.901Z,2.77
2017-10-03T06:32:59.951Z,2.50
2017-10-03T06:35:27.024Z,2.80
2017-10-03T06:37:53.309Z,3.07
2017-10-03T06:40:19.876Z,2.77
2017-10-03T06:42:46.181Z,2.90
2017-10-03T06:45:12.552Z,2.30
2017-10-03T06:47:38.874Z,3.53
2017-10-03T06:50:05.207Z,2.87
2017-10-03T06:52:31.515Z,2.53
2017-10-03T06:54:58.612Z,2.70
2017-10-03T06:57:24.951Z,2.20
2017-10-03T06:59:51.260Z,2.67
2017-10-03T07:02:17.556Z,2.37
2017-10-03T07:04:44.605Z,2.20
2017-10-03T07:07:11.636Z,3.07
2017-10-03T07:09:38.236Z,3.30
2017-10-03T07:12:04.644Z,2.90
2017-10-03T07:14:31.004Z,3.53
2017-10-03T07:16:57.355Z,2.60
2017-10-03T07:19:23.682Z,2.70
2017-10-03T07:21:50.126Z,2.90
2017-10-03T07:24:16.446Z,2.73
2017-10-03T07:26:42.893Z,2.97
2017-10-03T07:29:09.208Z,2.83
2017-10-03T07:31:35.628Z,2.87
2017-10-03T07:34:01.956Z,2.80
2017-10-03T07:36:28.277Z,2.93
2017-10-03T07:38:54.657Z,3.00
2017-10-03T07:41:21.692Z,3.30
2017-10-03T07:43:49.471Z,3.00
2017-10-03T07:46:16.499Z,3.40
2017-10-03T07:48:43.576Z,2.77
2017-10-03T07:51:10.621Z,3.10
2017-10-03T07:53:40.563Z,2.20
2017-10-03T07:56:11.422Z,2.27
2017-10-03T07:58:37.867Z,2.13
2017-10-03T08:01:04.173Z,1.93
2017-10-03T08:03:30.707Z,2.10
2017-10-03T08:05:57.216Z,2.30
2017-10-03T08:08:23.560Z,2.10
2017-10-03T08:10:49.882Z,2.03
2017-10-03T08:13:16.187Z,2.70
2017-10-03T08:15:43.325Z,2.70
2017-10-03T08:18:09.702Z,2.30
2017-10-03T08:20:36.009Z,2.50
2017-10-03T08:23:03.088Z,2.50
2017-10-03T08:25:29.407Z,2.93
2017-10-03T08:27:55.812Z,2.10
2017-10-03T08:30:22.860Z,2.63
2017-10-03T08:32:49.954Z,2.50
2017-10-03T08:35:16.233Z,1.90
2017-10-03T08:37:43.281Z,2.57
2017-10-03T08:40:10.379Z,2.20
2017-10-03T08:42:36.672Z,2.20
2017-10-03T08:45:03.015Z,2.10
2017-10-03T08:47:29.326Z,2.20
2017-10-03T08:49:56.396Z,2.40
2017-10-03T08:52:22.688Z,2.40
2017-10-03T08:54:53.146Z,2.57
2017-10-03T08:57:21.599Z,2.30
2017-10-03T08:59:48.424Z,2.67
2017-10-03T09:02:14.776Z,2.40
2017-10-03T09:04:42.311Z,2.67
2017-10-03T09:07:09.907Z,2.70
2017-10-03T09:09:36.273Z,3.00
2017-10-03T09:12:02.606Z,2.60
2017-10-03T09:14:29.052Z,2.60
2017-10-03T09:16:55.445Z,2.40
2017-10-03T09:19:21.764Z,3.27
2017-10-03T09:21:48.079Z,3.00
2017-10-03T09:24:15.216Z,2.90
2017-10-03T09:26:41.721Z,3.27
2017-10-03T09:29:08.045Z,3.20
2017-10-03T09:31:34.405Z,3.57
2017-10-03T09:34:00.764Z,3.60
2017-10-03T09:36:27.843Z,3.47
2017-10-03T09:38:54.241Z,3.27
2017-10-03T09:41:21.362Z,3.10
2017-10-03T09:43:47.716Z,2.83
2017-10-03T09:46:14.788Z,2.80
2017-10-03T09:48:41.151Z,3.30
2017-10-03T09:51:07.458Z,2.80
2017-10-03T09:53:33.801Z,2.77
2017-10-03T09:56:00.115Z,3.33
2017-10-03T09:58:26.540Z,3.63
2017-10-03T10:00:52.893Z,3.77
2017-10-03T10:03:19.235Z,3.57
2017-10-03T10:05:45.567Z,3.20
2017-10-03T10:08:11.869Z,3.40
2017-10-03T10:10:38.190Z,2.90
2017-10-03T10:13:04.584Z,2.80
2017-10-03T10:15:31.662Z,3.70
2017-10-03T10:17:58.740Z,3.03
2017-10-03T10:20:25.374Z,3.70
2017-10-03T10:22:53.929Z,2.57
2017-10-03T10:25:20.535Z,3.10
2017-10-03T10:27:47.138Z,3.10
2017-10-03T10:30:13.524Z,3.10
2017-10-03T10:32:40.611Z,3.00
2017-10-03T10:35:06.907Z,3.00
2017-10-03T10:37:33.965Z,3.20
2017-10-03T10:40:00.290Z,2.70
2017-10-03T10:42:27.380Z,2.80
2017-10-03T10:44:53.688Z,2.73
2017-10-03T10:47:20.016Z,2.80
2017-10-03T10:49:46.309Z,3.10
2017-10-03T10:52:13.393Z,2.77
2017-10-03T10:54:39.705Z,3.73
2017-10-03T10:57:06.955Z,2.83
2017-10-03T10:59:33.355Z,3.10
2017-10-03T11:01:59.638Z,2.90
2017-10-03T11:04:25.961Z,2.40
2017-10-03T11:06:52.304Z,2.90
2017-10-03T11:09:18.626Z,2.60
2017-10-03T11:11:44.919Z,2.80
2017-10-03T11:14:11.971Z,2.60
2017-10-03T11:16:39.076Z,2.37
2017-10-03T11:19:05.417Z,2.33
2017-10-03T11:21:32.148Z,2.90
2017-10-03T11:27:03.599Z,3.00
2017-10-03T11:29:29.945Z,2.83
2017-10-03T11:31:56.277Z,3.20
2017-10-03T11:34:22.703Z,2.60
2017-10-03T11:36:49.027Z,3.40
2017-10-03T11:39:15.323Z,3.50
2017-10-03T11:41:42.347Z,2.53
2017-10-03T11:44:08.674Z,2.20
2017-10-03T11:46:35.064Z,2.30
2017-10-03T11:49:01.400Z,2.20
2017-10-03T11:51:27.729Z,2.67
2017-10-03T11:53:54.028Z,3.70
2017-10-03T11:56:21.081Z,2.53
2017-10-03T11:58:47.577Z,2.40
2017-10-03T12:01:14.127Z,3.43
2017-10-03T12:03:41.192Z,2.70
2017-10-03T12:06:08.225Z,4.40
2017-10-03T12:08:35.321Z,2.67
2017-10-03T12:11:01.664Z,4.20
2017-10-03T12:13:27.956Z,3.60
2017-10-03T12:15:54.312Z,2.70
2017-10-03T12:18:22.177Z,3.27
2017-10-03T12:20:50.502Z,2.27
2017-10-03T12:23:18.181Z,2.90
2017-10-03T12:25:46.729Z,2.70
2017-10-03T12:28:13.060Z,2.40
2017-10-03T12:30:39.365Z,2.60
2017-10-03T12:33:05.720Z,2.10
2017-10-03T12:35:32.041Z,2.27
2017-10-03T12:37:58.387Z,2.77
2017-10-03T12:40:24.720Z,2.20
2017-10-03T12:42:51.812Z,2.43
2017-10-03T12:45:18.125Z,2.17
2017-10-03T12:47:45.184Z,1.97
2017-10-03T12:50:11.506Z,2.23
2017-10-03T12:52:38.561Z,2.10
2017-10-03T12:55:05.069Z,2.77
2017-10-03T12:57:32.108Z,2.60
2017-10-03T12:59:58.419Z,2.33
2017-10-03T13:02:24.707Z,2.60
2017-10-03T13:04:51.027Z,2.73
2017-10-03T13:07:17.458Z,2.47
2017-10-03T13:09:43.756Z,2.40
2017-10-03T13:12:10.093Z,2.30
2017-10-03T13:14:36.402Z,3.40
2017-10-03T13:17:02.725Z,2.80
2017-10-03T13:19:29.055Z,2.33
2017-10-03T13:21:55.376Z,2.33
2017-10-03T13:24:21.660Z,2.00
2017-10-03T13:26:48.734Z,2.67
2017-10-03T13:29:15.079Z,2.50
2017-10-03T13:31:41.417Z,2.77
2017-10-03T13:34:07.725Z,2.90
2017-10-03T13:36:34.057Z,2.87
2017-10-03T13:39:00.376Z,2.40
2017-10-03T13:41:26.688Z,2.03
2017-10-03T13:43:53.782Z,2.23
2017-10-03T13:46:20.085Z,2.50
2017-10-03T13:48:46.497Z,2.30
2017-10-03T13:51:13.582Z,2.27
2017-10-03T13:53:39.882Z,2.60
2017-10-03T13:56:07.088Z,2.30
2017-10-03T13:58:33.460Z,2.10
2017-10-03T14:01:00.537Z,2.40
2017-10-03T14:03:26.839Z,2.10
2017-10-03T14:05:53.909Z,2.37
2017-10-03T14:08:20.225Z,2.50
2017-10-03T14:10:46.660Z,2.27
2017-10-03T14:13:12.991Z,2.10
2017-10-03T14:15:39.400Z,2.30
2017-10-03T14:18:06.463Z,1.97
2017-10-03T14:20:33.506Z,2.30
2017-10-03T14:22:59.846Z,2.23
2017-10-03T14:25:26.160Z,2.07
2017-10-03T14:27:53.226Z,2.20
2017-10-03T14:30:19.521Z,3.00
2017-10-03T14:32:45.860Z,2.83
2017-10-03T14:35:12.214Z,2.37
2017-10-03T14:37:38.576Z,2.97
2017-10-03T14:40:04.933Z,2.50
2017-10-03T14:42:31.268Z,2.37
2017-10-03T14:44:57.632Z,2.80
2017-10-03T14:47:24.746Z,2.40
2017-10-03T14:49:57.952Z,2.60
2017-10-03T14:52:25.180Z,3.07
2017-10-03T14:54:51.504Z,2.97
2017-10-03T14:57:17.830Z,2.53
2017-10-03T14:59:44.155Z,2.07
2017-10-03T15:02:10.468Z,2.50
2017-10-03T15:04:36.992Z,2.50
2017-10-03T15:07:03.573Z,2.30
2017-10-03T15:09:29.901Z,2.53
2017-10-03T15:11:56.192Z,2.17
2017-10-03T15:14:22.488Z,2.47
2017-10-03T15:16:49.585Z,3.20
2017-10-03T15:19:15.926Z,2.20
2017-10-03T15:21:42.244Z,2.97
2017-10-03T15:24:09.240Z,2.23
2017-10-03T15:26:35.597Z,2.50
2017-10-03T15:29:01.925Z,2.20
2017-10-03T15:31:28.998Z,2.23
2017-10-03T15:33:55.383Z,2.27
2017-10-03T15:36:22.468Z,1.90
2017-10-03T15:38:48.755Z,2.50
2017-10-03T15:41:15.304Z,2.03
2017-10-03T15:43:41.873Z,2.20
2017-10-03T15:46:08.228Z,2.93
2017-10-03T15:48:34.555Z,1.93
2017-10-03T15:51:00.867Z,2.30
2017-10-03T15:53:27.181Z,2.13
2017-10-03T15:55:53.654Z,1.90
2017-10-03T15:58:19.962Z,2.37
2017-10-03T16:00:46.292Z,2.00
2017-10-03T16:03:12.633Z,2.10
2017-10-03T16:05:38.983Z,2.10
2017-10-03T16:08:05.623Z,2.70
2017-10-03T16:10:31.956Z,1.80
2017-10-03T16:12:58.310Z,2.30
2017-10-03T16:15:25.361Z,2.00
2017-10-03T16:17:52.479Z,2.10
2017-10-03T16:20:19.151Z,2.60
2017-10-03T16:22:46.266Z,2.00
2017-10-03T16:25:12.556Z,1.97
2017-10-03T16:27:39.053Z,1.90
2017-10-03T16:30:06.088Z,1.93
2017-10-03T16:32:32.404Z,1.73
2017-10-03T16:34:58.764Z,3.13
2017-10-03T16:37:25.803Z,2.03
2017-10-03T16:39:52.884Z,2.03
2017-10-03T16:42:19.223Z,2.67
2017-10-03T16:44:45.529Z,1.90
2017-10-03T16:47:12.657Z,2.30
2017-10-03T16:49:39.029Z,2.10
2017-10-03T16:52:05.373Z,2.13
2017-10-03T16:54:31.685Z,1.87
2017-10-03T16:56:58.029Z,1.97
2017-10-03T16:59:24.346Z,2.80
2017-10-03T17:01:50.679Z,2.77
2017-10-03T17:04:17.152Z,2.43
2017-10-03T17:06:43.448Z,2.40
2017-10-03T17:09:09.770Z,3.07
2017-10-03T17:11:36.056Z,2.50
2017-10-03T17:14:02.373Z,2.13
2017-10-03T17:16:28.673Z,2.33
2017-10-03T17:18:55.182Z,2.60
2017-10-03T17:21:22.217Z,2.43
2017-10-03T17:23:49.364Z,2.67
2017-10-03T17:26:16.492Z,2.50
2017-10-03T17:28:43.563Z,2.87
2017-10-03T17:31:10.640Z,2.30
2017-10-03T17:33:36.945Z,2.40
2017-10-03T17:36:04.066Z,2.77
2017-10-03T17:38:30.448Z,2.63
2017-10-03T17:40:56.787Z,2.60
2017-10-03T17:43:23.142Z,3.37
2017-10-03T17:45:49.468Z,2.50
2017-10-03T17:48:15.807Z,3.07
2017-10-03T17:50:42.160Z,3.20
2017-10-03T17:53:08.535Z,2.73
2017-10-03T17:55:35.080Z,2.53
2017-10-03T17:58:01.424Z,2.60
2017-10-03T18:00:27.740Z,3.10
2017-10-03T18:02:54.045Z,2.90
2017-10-03T18:05:21.151Z,3.67
2017-10-03T18:07:47.654Z,2.93
2017-10-03T18:10:14.045Z,3.37
2017-10-03T18:12:41.324Z,3.37
2017-10-03T18:15:07.766Z,2.97
2017-10-03T18:17:34.274Z,3.20
2017-10-03T18:20:01.033Z,3.60
2017-10-03T18:22:30.859Z,2.73
2017-10-03T18:24:58.404Z,3.93
2017-10-03T18:27:25.075Z,3.30
2017-10-03T18:29:52.600Z,3.20
2017-10-03T18:32:19.442Z,3.43
2017-10-03T18:34:46.400Z,3.70
2017-10-03T18:37:16.714Z,3.80
2017-10-03T18:39:43.699Z,3.83
2017-10-03T18:42:10.498Z,4.00
2017-10-03T18:44:37.137Z,4.00
2017-10-03T18:47:03.752Z,3.17
2017-10-03T18:49:30.515Z,3.80
2017-10-03T18:51:57.254Z,3.80
2017-10-03T18:54:23.993Z,4.03
2017-10-03T18:56:50.945Z,4.33
2017-10-03T18:59:20.708Z,4.00
2017-10-03T19:01:48.324Z,3.47
2017-10-03T19:04:15.868Z,3.70
2017-10-03T19:06:42.608Z,3.60
2017-10-03T19:09:09.461Z,5.10
2017-10-03T19:11:37.734Z,5.00
2017-10-03T19:14:04.468Z,4.30
2017-10-03T19:16:31.138Z,4.60
2017-10-03T19:18:58.665Z,3.53
2017-10-03T19:21:25.506Z,3.43
2017-10-03T19:23:52.346Z,3.57
2017-10-03T19:26:19.196Z,3.90
2017-10-03T19:28:45.932Z,4.57
2017-10-03T19:31:12.677Z,3.53
2017-10-03T19:33:39.516Z,4.93
2017-10-03T19:36:06.368Z,5.00
2017-10-03T19:38:33.006Z,4.53
2017-10-03T19:40:59.836Z,4.93
2017-10-03T19:43:26.576Z,5.63
2017-10-03T19:45:53.627Z,4.93
2017-10-03T19:48:20.480Z,5.00
2017-10-03T19:50:48.131Z,4.00
2017-10-03T19:53:15.089Z,4.40
2017-10-03T19:55:41.959Z,3.57
2017-10-03T19:58:08.988Z,3.37
2017-10-03T20:00:36.529Z,3.57
2017-10-03T20:03:03.362Z,3.67
2017-10-03T20:05:29.867Z,3.30
2017-10-03T20:07:56.262Z,3.90
2017-10-03T20:10:22.623Z,4.10
2017-10-03T20:12:48.949Z,4.13
2017-10-03T20:15:16.211Z,2.90
2017-10-03T20:17:42.560Z,4.03
2017-10-03T20:20:08.941Z,4.00
2017-10-03T20:22:35.267Z,4.20
2017-10-03T20:25:01.600Z,3.80
2017-10-03T20:27:27.975Z,4.30
2017-10-03T20:29:55.057Z,3.50
2017-10-03T20:32:21.430Z,3.93
2017-10-03T20:34:47.859Z,3.07
2017-10-03T20:37:14.229Z,4.57
2017-10-03T20:39:41.303Z,4.20
2017-10-03T20:42:07.604Z,4.07
2017-10-03T20:44:34.693Z,3.90
2017-10-03T20:47:00.995Z,3.93
2017-10-03T20:49:27.352Z,4.37
2017-10-03T20:51:53.624Z,4.90
2017-10-03T20:54:19.980Z,3.90
2017-10-03T20:56:47.057Z,4.70
2017-10-03T20:59:13.387Z,4.57
2017-10-03T21:01:39.743Z,4.67
2017-10-03T21:04:06.047Z,5.37
2017-10-03T21:06:32.374Z,4.27
2017-10-03T21:08:58.740Z,5.00
2017-10-03T21:11:25.366Z,4.50
2017-10-03T21:13:51.653Z,4.30
2017-10-03T21:16:17.996Z,5.13
2017-10-03T21:18:44.484Z,5.33
2017-10-03T21:21:10.804Z,4.53
2017-10-03T21:23:44.041Z,5.20
2017-10-03T21:26:10.409Z,4.80
2017-10-03T21:28:36.728Z,4.70
2017-10-03T21:31:03.054Z,4.70
2017-10-03T21:33:29.368Z,4.90
2017-10-03T21:35:55.706Z,4.57
2017-10-03T21:38:22.129Z,4.93
2017-10-03T21:40:48.635Z,4.67
2017-10-03T21:43:15.678Z,4.43
2017-10-03T21:45:41.993Z,4.30
2017-10-03T21:48:09.050Z,5.70
2017-10-03T21:50:35.370Z,4.70
2017-10-03T21:53:01.673Z,4.37
2017-10-03T21:55:27.972Z,4.07
2017-10-03T21:57:54.331Z,4.60
2017-10-03T22:00:20.634Z,5.03
2017-10-03T22:02:46.916Z,4.83
2017-10-03T22:05:13.284Z,4.70
2017-10-03T22:07:40.308Z,4.20
2017-10-03T22:10:06.992Z,5.23
2017-10-03T22:12:34.170Z,5.20
2017-10-03T22:15:00.664Z,5.67
2017-10-03T22:17:27.088Z,5.47
2017-10-03T22:19:54.120Z,4.57
2017-10-03T22:22:21.180Z,4.03
2017-10-03T22:24:48.192Z,4.50
2017-10-03T22:27:14.473Z,5.77
2017-10-03T22:29:40.798Z,5.20
2017-10-03T22:32:07.131Z,6.83
2017-10-03T22:34:33.433Z,5.20
2017-10-03T22:36:59.719Z,5.13
2017-10-03T22:39:26.088Z,5.53
2017-10-03T22:41:52.460Z,4.57
2017-10-03T22:44:18.781Z,5.20
2017-10-03T22:46:45.097Z,5.10
2017-10-03T22:49:12.121Z,5.00
2017-10-03T22:51:44.636Z,4.90
2017-10-03T22:54:10.917Z,4.47
2017-10-03T22:56:37.199Z,4.47
2017-10-03T22:59:03.487Z,3.90
2017-10-03T23:01:29.775Z,4.40
2017-10-03T23:03:56.115Z,5.43
2017-10-03T23:06:22.452Z,4.10
2017-10-03T23:08:48.832Z,4.27
2017-10-03T23:11:15.891Z,3.60
2017-10-03T23:13:42.217Z,4.37
2017-10-03T23:16:08.561Z,4.20
2017-10-03T23:18:34.922Z,5.13
2017-10-03T23:21:01.224Z,4.30
2017-10-03T23:23:27.556Z,4.23
2017-10-03T23:25:53.871Z,4.90
2017-10-03T23:28:20.153Z,3.73
2017-10-03T23:30:46.671Z,4.23
2017-10-03T23:33:13.006Z,4.73
2017-10-03T23:35:39.336Z,4.63
2017-10-03T23:38:05.624Z,4.40
2017-10-03T23:40:31.918Z,3.40
2017-10-03T23:42:58.256Z,5.33
2017-10-03T23:45:26.024Z,4.30
2017-10-03T23:47:52.356Z,3.93
2017-10-03T23:50:19.490Z,4.40
2017-10-03T23:52:45.792Z,4.37
2017-10-03T23:55:12.093Z,5.83
2017-10-03T23:57:38.388Z,4.90
